sensor_id;sensor_type;location;lat;lon;timestamp;pressure;altitude;pressure_sealevel;temperature;humidity
25610;BME280;13479;49.044;8.716;2023-02-10T05:00:21;101000.31;;;-3.99;73.25
25610;BME280;13479;49.044;8.716;2023-02-10T05:02:46;100989.09;;;-4.01;73.87
25610;BME280;13479;49.044;8.716;2023-02-10T05:05:12;100971.84;;;-3.90;73.55
25610;BME280;13479;49.044;8.716;2023-02-10T05:07:37;100968.38;;;-3.92;73.95
25610;BME280;13479;49.044;8.716;2023-02-10T05:10:03;100954.44;;;-4.07;73.95
25610;BME280;13479;49.044;8.716;2023-02-10T05:12:28;100934.53;;;-4.11;74.16
25610;BME280;13479;49.044;8.716;2023-02-10T05:14:54;100912.91;;;-4.13;74.65
25610;BME280;13479;49.044;8.716;2023-02-10T05:17:19;100913.81;;;-3.98;74.73
25610;BME280;13479;49.044;8.716;2023-02-10T05:19:44;100931.19;;;-3.85;74.77
25610;BME280;13479;49.044;8.716;2023-02-10T05:22:09;100958.88;;;-3.82;75.02
25610;BME280;13479;49.044;8.716;2023-02-10T05:24:35;100979.66;;;-3.85;75.09
25610;BME280;13479;49.044;8.716;2023-02-10T05:27:00;100988.25;;;-3.94;75.03
25610;BME280;13479;49.044;8.716;2023-02-10T05:29:25;100988.19;;;-4.07;74.58
25610;BME280;13479;49.044;8.716;2023-02-10T05:31:51;100994.19;;;-4.14;74.93
25610;BME280;13479;49.044;8.716;2023-02-10T05:34:16;100983.88;;;-3.98;75.15
25610;BME280;13479;49.044;8.716;2023-02-10T05:36:41;101010.00;;;-3.67;74.44
25610;BME280;13479;49.044;8.716;2023-02-10T05:39:08;101046.31;;;-3.74;74.13
25610;BME280;13479;49.044;8.716;2023-02-10T05:41:58;101073.19;;;-3.67;74.46
25610;BME280;13479;49.044;8.716;2023-02-10T05:44:26;101078.41;;;-3.64;74.45
25610;BME280;13479;49.044;8.716;2023-02-10T05:46:52;101088.72;;;-3.70;74.58
25610;BME280;13479;49.044;8.716;2023-02-10T05:49:18;101090.38;;;-3.89;74.44
25610;BME280;13479;49.044;8.716;2023-02-10T05:51:43;101072.19;;;-3.92;74.22
25610;BME280;13479;49.044;8.716;2023-02-10T05:54:09;101059.34;;;-3.66;74.59
25610;BME280;13479;49.044;8.716;2023-02-10T05:56:35;101058.50;;;-3.66;74.84
25610;BME280;13479;49.044;8.716;2023-02-10T05:59:00;101057.59;;;-3.67;75.02
25610;BME280;13479;49.044;8.716;2023-02-10T06:01:26;101042.84;;;-3.77;75.20
25610;BME280;13479;49.044;8.716;2023-02-10T06:03:52;101036.78;;;-3.78;75.62
25610;BME280;13479;49.044;8.716;2023-02-10T06:06:17;101023.75;;;-3.87;75.44
25610;BME280;13479;49.044;8.716;2023-02-10T06:08:42;101024.56;;;-3.94;75.86
25610;BME280;13479;49.044;8.716;2023-02-10T06:11:08;101027.16;;;-4.00;76.25
25610;BME280;13479;49.044;8.716;2023-02-10T06:13:34;101033.13;;;-4.11;75.76
25610;BME280;13479;49.044;8.716;2023-02-10T06:15:59;101055.56;;;-4.17;76.35
25610;BME280;13479;49.044;8.716;2023-02-10T06:18:27;101078.88;;;-4.22;75.83
25610;BME280;13479;49.044;8.716;2023-02-10T06:20:52;101116.38;;;-3.78;74.41
25610;BME280;13479;49.044;8.716;2023-02-10T06:23:17;101236.75;;;-3.65;73.06
25610;BME280;13479;49.044;8.716;2023-02-10T06:25:43;101305.94;;;-3.74;72.91
25610;BME280;13479;49.044;8.716;2023-02-10T06:28:08;101337.91;;;-3.79;73.11
25610;BME280;13479;49.044;8.716;2023-02-10T06:30:33;101326.66;;;-3.80;72.86
25610;BME280;13479;49.044;8.716;2023-02-10T06:32:59;101311.03;;;-3.83;73.11
25610;BME280;13479;49.044;8.716;2023-02-10T06:35:24;101282.38;;;-3.94;73.46
25610;BME280;13479;49.044;8.716;2023-02-10T06:37:49;101245.94;;;-4.06;73.95
25610;BME280;13479;49.044;8.716;2023-02-10T06:40:15;101214.81;;;-4.06;73.94
25610;BME280;13479;49.044;8.716;2023-02-10T06:42:40;101200.00;;;-4.13;74.28
25610;BME280;13479;49.044;8.716;2023-02-10T06:45:06;101132.66;;;-3.99;75.22
25610;BME280;13479;49.044;8.716;2023-02-10T06:47:33;101118.56;;;-4.36;75.09
25610;BME280;13479;49.044;8.716;2023-02-10T06:49:59;101091.56;;;-4.56;76.27
25610;BME280;13479;49.044;8.716;2023-02-10T06:52:24;101055.50;;;-4.24;75.89
25610;BME280;13479;49.044;8.716;2023-02-10T06:54:51;101077.22;;;-4.11;76.14
25610;BME280;13479;49.044;8.716;2023-02-10T06:57:16;101101.53;;;-4.03;75.91
25610;BME280;13479;49.044;8.716;2023-02-10T06:59:42;101120.56;;;-4.00;75.33
25610;BME280;13479;49.044;8.716;2023-02-10T07:02:08;101133.47;;;-4.07;75.51
25610;BME280;13479;49.044;8.716;2023-02-10T07:04:35;101128.47;;;-3.80;75.20
25610;BME280;13479;49.044;8.716;2023-02-10T07:07:00;101184.00;;;-3.63;74.34
25610;BME280;13479;49.044;8.716;2023-02-10T07:09:25;101259.47;;;-3.39;73.28
25610;BME280;13479;49.044;8.716;2023-02-10T07:11:51;101316.63;;;-3.41;73.38
25610;BME280;13479;49.044;8.716;2023-02-10T07:14:16;101323.63;;;-3.32;72.61
25610;BME280;13479;49.044;8.716;2023-02-10T07:16:42;101352.28;;;-3.20;72.51
25610;BME280;13479;49.044;8.716;2023-02-10T07:19:07;101363.56;;;-3.21;72.36
25610;BME280;13479;49.044;8.716;2023-02-10T07:21:33;101346.97;;;-3.34;72.89
25610;BME280;13479;49.044;8.716;2023-02-10T07:23:58;101299.44;;;-3.22;73.45
25610;BME280;13479;49.044;8.716;2023-02-10T07:26:25;101275.28;;;-3.04;73.69
25610;BME280;13479;49.044;8.716;2023-02-10T07:28:51;101305.81;;;-2.76;72.87
25610;BME280;13479;49.044;8.716;2023-02-10T07:31:16;101337.88;;;-2.71;72.47
25610;BME280;13479;49.044;8.716;2023-02-10T07:33:41;101384.84;;;-2.51;71.70
25610;BME280;13479;49.044;8.716;2023-02-10T07:36:08;101406.50;;;-2.54;71.59
25610;BME280;13479;49.044;8.716;2023-02-10T07:38:34;101405.66;;;-2.50;71.87
25610;BME280;13479;49.044;8.716;2023-02-10T07:40:59;101396.16;;;-2.38;71.72
25610;BME280;13479;49.044;8.716;2023-02-10T07:43:24;101410.97;;;-2.28;70.80
25610;BME280;13479;49.044;8.716;2023-02-10T07:45:50;101391.94;;;-2.18;71.02
25610;BME280;13479;49.044;8.716;2023-02-10T07:48:16;101409.41;;;-1.89;70.15
25610;BME280;13479;49.044;8.716;2023-02-10T07:50:42;101475.50;;;-1.59;68.81
25610;BME280;13479;49.044;8.716;2023-02-10T07:53:07;101439.06;;;-1.46;69.27
25610;BME280;13479;49.044;8.716;2023-02-10T07:55:32;101390.44;;;-0.90;69.05
25610;BME280;13479;49.044;8.716;2023-02-10T07:57:58;101447.75;;;-0.23;66.66
25610;BME280;13479;49.044;8.716;2023-02-10T08:00:23;101419.53;;;0.56;63.43
25610;BME280;13479;49.044;8.716;2023-02-10T08:02:48;101338.19;;;1.76;60.58
25610;BME280;13479;49.044;8.716;2023-02-10T08:05:14;101307.78;;;2.85;56.17
25610;BME280;13479;49.044;8.716;2023-02-10T08:07:39;101287.56;;;3.78;53.53
25610;BME280;13479;49.044;8.716;2023-02-10T08:10:04;101277.09;;;4.53;51.25
25610;BME280;13479;49.044;8.716;2023-02-10T08:12:30;101270.84;;;5.25;48.70
25610;BME280;13479;49.044;8.716;2023-02-10T08:14:57;101259.53;;;5.81;48.32
25610;BME280;13479;49.044;8.716;2023-02-10T08:17:22;101264.91;;;6.08;46.48
25610;BME280;13479;49.044;8.716;2023-02-10T08:19:48;101260.31;;;6.42;45.48
25610;BME280;13479;49.044;8.716;2023-02-10T08:22:13;101260.75;;;6.28;45.45
25610;BME280;13479;49.044;8.716;2023-02-10T08:24:38;101267.34;;;6.14;46.08
25610;BME280;13479;49.044;8.716;2023-02-10T08:27:04;101261.28;;;5.21;47.01
25610;BME280;13479;49.044;8.716;2023-02-10T08:29:30;101225.47;;;4.13;49.00
25610;BME280;13479;49.044;8.716;2023-02-10T08:31:55;101152.66;;;3.41;51.20
25610;BME280;13479;49.044;8.716;2023-02-10T08:34:21;101119.69;;;2.87;53.26
25610;BME280;13479;49.044;8.716;2023-02-10T08:36:46;101100.38;;;2.45;54.05
25610;BME280;13479;49.044;8.716;2023-02-10T08:39:13;101086.75;;;2.26;55.02
25610;BME280;13479;49.044;8.716;2023-02-10T08:41:39;101078.22;;;2.15;55.75
25610;BME280;13479;49.044;8.716;2023-02-10T08:44:05;101067.72;;;2.16;56.03
25610;BME280;13479;49.044;8.716;2023-02-10T08:46:31;101067.50;;;2.27;56.21
25610;BME280;13479;49.044;8.716;2023-02-10T08:48:56;101082.53;;;2.65;55.81
25610;BME280;13479;49.044;8.716;2023-02-10T08:51:25;101097.50;;;3.02;54.51
25610;BME280;13479;49.044;8.716;2023-02-10T08:53:50;101137.69;;;3.45;53.54
25610;BME280;13479;49.044;8.716;2023-02-10T08:56:17;101198.88;;;4.25;51.94
25610;BME280;13479;49.044;8.716;2023-02-10T08:58:43;101255.22;;;5.79;48.05
25610;BME280;13479;49.044;8.716;2023-02-10T09:01:14;101270.75;;;7.22;45.29
25610;BME280;13479;49.044;8.716;2023-02-10T09:03:40;101283.25;;;8.57;43.42
25610;BME280;13479;49.044;8.716;2023-02-10T09:06:15;101292.59;;;9.86;39.85
25610;BME280;13479;49.044;8.716;2023-02-10T09:08:42;101288.75;;;11.02;37.70
25610;BME280;13479;49.044;8.716;2023-02-10T09:11:08;101296.97;;;11.98;35.85
25610;BME280;13479;49.044;8.716;2023-02-10T09:13:34;101307.56;;;12.62;34.79
25610;BME280;13479;49.044;8.716;2023-02-10T09:15:59;101321.75;;;13.38;32.89
25610;BME280;13479;49.044;8.716;2023-02-10T09:18:24;101310.97;;;13.83;32.25
25610;BME280;13479;49.044;8.716;2023-02-10T09:20:50;101312.63;;;14.13;31.91
25610;BME280;13479;49.044;8.716;2023-02-10T09:23:15;101312.06;;;14.77;30.38
25610;BME280;13479;49.044;8.716;2023-02-10T09:25:40;101315.09;;;15.37;29.70
25610;BME280;13479;49.044;8.716;2023-02-10T09:28:06;101312.25;;;16.03;29.31
25610;BME280;13479;49.044;8.716;2023-02-10T09:30:31;101303.94;;;16.79;28.08
25610;BME280;13479;49.044;8.716;2023-02-10T09:32:56;101313.75;;;17.27;26.96
25610;BME280;13479;49.044;8.716;2023-02-10T09:35:21;101305.19;;;17.22;26.61
25610;BME280;13479;49.044;8.716;2023-02-10T09:37:47;101301.78;;;17.88;26.41
25610;BME280;13479;49.044;8.716;2023-02-10T09:40:16;101306.69;;;18.71;25.75
25610;BME280;13479;49.044;8.716;2023-02-10T09:43:52;101307.19;;;19.81;25.05
25610;BME280;13479;49.044;8.716;2023-02-10T09:45:55;101307.34;;;20.89;24.09
25610;BME280;13479;49.044;8.716;2023-02-10T09:48:42;101314.59;;;21.55;22.41
25610;BME280;13479;49.044;8.716;2023-02-10T09:53:51;101303.94;;;23.00;21.47
25610;BME280;13479;49.044;8.716;2023-02-10T09:56:20;101306.59;;;23.44;20.97
25610;BME280;13479;49.044;8.716;2023-02-10T09:58:49;101309.97;;;23.73;20.81
25610;BME280;13479;49.044;8.716;2023-02-10T10:01:25;101301.19;;;23.87;20.10
25610;BME280;13479;49.044;8.716;2023-02-10T10:04:01;101305.00;;;24.03;19.94
25610;BME280;13479;49.044;8.716;2023-02-10T10:06:35;101294.84;;;24.13;19.87
25610;BME280;13479;49.044;8.716;2023-02-10T10:11:50;101304.56;;;23.89;19.38
25610;BME280;13479;49.044;8.716;2023-02-10T10:14:26;101303.44;;;23.92;19.66
25610;BME280;13479;49.044;8.716;2023-02-10T10:17:01;101292.13;;;24.13;20.34
25610;BME280;13479;49.044;8.716;2023-02-10T10:30:54;101292.06;;;23.54;20.19
25610;BME280;13479;49.044;8.716;2023-02-10T10:33:30;101289.78;;;23.67;19.99
25610;BME280;13479;49.044;8.716;2023-02-10T10:35:58;101299.13;;;23.81;19.70
25610;BME280;13479;49.044;8.716;2023-02-10T10:38:32;101286.69;;;23.62;19.76
25610;BME280;13479;49.044;8.716;2023-02-10T10:41:03;101291.75;;;23.57;20.21
25610;BME280;13479;49.044;8.716;2023-02-10T10:43:32;101286.34;;;23.57;20.33
25610;BME280;13479;49.044;8.716;2023-02-10T10:46:16;101287.25;;;23.13;19.63
25610;BME280;13479;49.044;8.716;2023-02-10T10:48:44;101286.59;;;22.93;20.38
25610;BME280;13479;49.044;8.716;2023-02-10T10:51:10;101294.47;;;22.60;19.75
25610;BME280;13479;49.044;8.716;2023-02-10T10:53:51;101288.94;;;22.15;19.68
25610;BME280;13479;49.044;8.716;2023-02-10T10:59:21;101274.41;;;20.85;21.15
25610;BME280;13479;49.044;8.716;2023-02-10T11:01:49;101263.28;;;20.68;21.42
25610;BME280;13479;49.044;8.716;2023-02-10T11:06:42;101253.78;;;20.15;22.22
25610;BME280;13479;49.044;8.716;2023-02-10T11:09:30;101244.81;;;20.05;21.95
25610;BME280;13479;49.044;8.716;2023-02-10T11:12:04;101240.38;;;19.84;22.30
25610;BME280;13479;49.044;8.716;2023-02-10T11:14:37;101247.28;;;19.67;22.25
25610;BME280;13479;49.044;8.716;2023-02-10T11:17:19;101239.78;;;19.30;22.75
25610;BME280;13479;49.044;8.716;2023-02-10T11:19:58;101235.44;;;19.08;23.00
25610;BME280;13479;49.044;8.716;2023-02-10T11:22:24;101239.31;;;18.94;22.97
25610;BME280;13479;49.044;8.716;2023-02-10T11:24:52;101236.66;;;18.61;23.20
25610;BME280;13479;49.044;8.716;2023-02-10T11:27:18;101224.19;;;18.39;23.44
25610;BME280;13479;49.044;8.716;2023-02-10T11:29:53;101226.84;;;18.18;23.85
25610;BME280;13479;49.044;8.716;2023-02-10T11:32:22;101221.75;;;17.92;24.35
25610;BME280;13479;49.044;8.716;2023-02-10T11:34:50;101221.44;;;17.63;24.52
25610;BME280;13479;49.044;8.716;2023-02-10T11:37:22;101218.03;;;16.92;24.79
25610;BME280;13479;49.044;8.716;2023-02-10T11:39:50;101216.34;;;16.20;25.80
25610;BME280;13479;49.044;8.716;2023-02-10T11:42:21;101197.16;;;15.14;26.80
25610;BME280;13479;49.044;8.716;2023-02-10T11:47:35;101203.50;;;13.09;29.69
25610;BME280;13479;49.044;8.716;2023-02-10T11:50:02;101201.41;;;12.24;30.89
25610;BME280;13479;49.044;8.716;2023-02-10T11:52:29;101192.97;;;11.53;32.11
25610;BME280;13479;49.044;8.716;2023-02-10T11:54:55;101189.22;;;11.08;32.99
25610;BME280;13479;49.044;8.716;2023-02-10T11:57:30;101181.63;;;10.49;33.76
25610;BME280;13479;49.044;8.716;2023-02-10T12:00:29;101179.53;;;9.84;34.53
25610;BME280;13479;49.044;8.716;2023-02-10T12:03:29;101176.84;;;9.47;35.78
25610;BME280;13479;49.044;8.716;2023-02-10T12:06:05;101179.78;;;9.22;36.58
25610;BME280;13479;49.044;8.716;2023-02-10T12:13:59;101166.22;;;8.69;37.09
25610;BME280;13479;49.044;8.716;2023-02-10T12:19:39;101158.25;;;8.28;38.14
25610;BME280;13479;49.044;8.716;2023-02-10T12:22:51;101161.06;;;8.02;39.19
25610;BME280;13479;49.044;8.716;2023-02-10T12:25:32;101146.63;;;7.89;39.44
25610;BME280;13479;49.044;8.716;2023-02-10T12:39:00;101141.69;;;7.57;40.65
25610;BME280;13479;49.044;8.716;2023-02-10T12:44:38;101140.84;;;7.57;41.23
25610;BME280;13479;49.044;8.716;2023-02-10T12:47:35;101139.97;;;7.56;41.37
25610;BME280;13479;49.044;8.716;2023-02-10T12:50:33;101124.25;;;7.53;41.65
25610;BME280;13479;49.044;8.716;2023-02-10T12:53:10;101123.81;;;7.64;42.35
25610;BME280;13479;49.044;8.716;2023-02-10T12:58:13;101114.97;;;7.65;42.86
25610;BME280;13479;49.044;8.716;2023-02-10T13:00:45;101105.38;;;7.63;42.57
25610;BME280;13479;49.044;8.716;2023-02-10T13:03:15;101097.44;;;7.63;42.82
25610;BME280;13479;49.044;8.716;2023-02-10T13:05:55;101098.78;;;7.51;42.37
25610;BME280;13479;49.044;8.716;2023-02-10T13:08:30;101097.97;;;7.49;42.67
25610;BME280;13479;49.044;8.716;2023-02-10T13:11:02;101088.34;;;7.48;42.74
25610;BME280;13479;49.044;8.716;2023-02-10T13:13:32;101084.38;;;7.37;43.17
25610;BME280;13479;49.044;8.716;2023-02-10T13:16:18;101093.50;;;7.29;43.28
25610;BME280;13479;49.044;8.716;2023-02-10T13:21:36;101084.84;;;7.25;43.85
25610;BME280;13479;49.044;8.716;2023-02-10T13:24:33;101086.78;;;7.20;43.92
25610;BME280;13479;49.044;8.716;2023-02-10T13:30:14;101090.81;;;7.06;43.37
25610;BME280;13479;49.044;8.716;2023-02-10T13:33:03;101091.88;;;7.02;43.64
25610;BME280;13479;49.044;8.716;2023-02-10T13:35:33;101092.28;;;6.91;44.27
25610;BME280;13479;49.044;8.716;2023-02-10T13:38:06;101093.94;;;6.94;43.59
25610;BME280;13479;49.044;8.716;2023-02-10T13:40:47;101095.66;;;6.95;44.18
25610;BME280;13479;49.044;8.716;2023-02-10T13:43:28;101100.72;;;7.01;43.14
25610;BME280;13479;49.044;8.716;2023-02-10T13:45:55;101099.00;;;7.00;43.31
25610;BME280;13479;49.044;8.716;2023-02-10T13:48:24;101101.63;;;7.00;43.59
25610;BME280;13479;49.044;8.716;2023-02-10T13:50:57;101106.09;;;6.98;43.71
25610;BME280;13479;49.044;8.716;2023-02-10T14:01:46;101119.78;;;7.09;42.79
25610;BME280;13479;49.044;8.716;2023-02-10T14:06:43;101117.25;;;7.06;43.67
25610;BME280;13479;49.044;8.716;2023-02-10T14:11:46;101109.28;;;7.08;43.26
25610;BME280;13479;49.044;8.716;2023-02-10T14:14:28;101106.56;;;7.09;43.09
25610;BME280;13479;49.044;8.716;2023-02-10T14:17:20;101107.59;;;7.05;43.51
25610;BME280;13479;49.044;8.716;2023-02-10T14:19:49;101118.97;;;7.07;43.28
25610;BME280;13479;49.044;8.716;2023-02-10T14:22:29;101113.78;;;7.04;42.93
25610;BME280;13479;49.044;8.716;2023-02-10T14:25:04;101111.28;;;7.01;43.50
25610;BME280;13479;49.044;8.716;2023-02-10T14:27:40;101106.50;;;7.11;43.27
25610;BME280;13479;49.044;8.716;2023-02-10T14:30:17;101117.03;;;7.13;43.46
25610;BME280;13479;49.044;8.716;2023-02-10T14:32:45;101115.22;;;7.13;43.28
25610;BME280;13479;49.044;8.716;2023-02-10T14:35:19;101112.53;;;7.15;43.00
25610;BME280;13479;49.044;8.716;2023-02-10T14:37:53;101114.41;;;7.11;43.44
25610;BME280;13479;49.044;8.716;2023-02-10T14:40:22;101116.22;;;7.10;43.67
25610;BME280;13479;49.044;8.716;2023-02-10T14:42:48;101114.72;;;7.03;43.22
25610;BME280;13479;49.044;8.716;2023-02-10T14:45:22;101109.09;;;7.13;43.67
25610;BME280;13479;49.044;8.716;2023-02-10T14:47:49;101111.03;;;7.07;43.90
25610;BME280;13479;49.044;8.716;2023-02-10T14:50:22;101102.94;;;7.12;43.73
25610;BME280;13479;49.044;8.716;2023-02-10T14:52:49;101111.75;;;7.13;43.57
25610;BME280;13479;49.044;8.716;2023-02-10T14:55:31;101113.78;;;7.04;43.34
25610;BME280;13479;49.044;8.716;2023-02-10T14:58:04;101106.84;;;7.02;43.98
25610;BME280;13479;49.044;8.716;2023-02-10T15:00:31;101105.19;;;6.99;43.93
25610;BME280;13479;49.044;8.716;2023-02-10T15:02:58;101106.22;;;6.95;43.77
25610;BME280;13479;49.044;8.716;2023-02-10T15:05:25;101107.94;;;6.96;43.66
25610;BME280;13479;49.044;8.716;2023-02-10T15:07:55;101107.91;;;6.98;44.14
25610;BME280;13479;49.044;8.716;2023-02-10T15:10:42;101101.28;;;6.86;44.24
25610;BME280;13479;49.044;8.716;2023-02-10T15:13:11;101096.25;;;6.79;44.00
25610;BME280;13479;49.044;8.716;2023-02-10T15:15:40;101098.53;;;6.65;44.87
25610;BME280;13479;49.044;8.716;2023-02-10T15:18:18;101091.19;;;6.73;44.67
25610;BME280;13479;49.044;8.716;2023-02-10T15:20:53;101094.88;;;6.69;44.16
25610;BME280;13479;49.044;8.716;2023-02-10T15:23:19;101088.31;;;6.56;45.03
25610;BME280;13479;49.044;8.716;2023-02-10T15:25:44;101091.97;;;6.52;44.87
25610;BME280;13479;49.044;8.716;2023-02-10T15:31:04;101090.56;;;6.41;44.05
25610;BME280;13479;49.044;8.716;2023-02-10T15:36:20;101090.03;;;6.31;44.37
25610;BME280;13479;49.044;8.716;2023-02-10T15:41:38;101096.69;;;6.42;44.04
25610;BME280;13479;49.044;8.716;2023-02-10T15:44:24;101098.09;;;6.27;44.25
25610;BME280;13479;49.044;8.716;2023-02-10T15:49:36;101091.34;;;6.20;44.99
25610;BME280;13479;49.044;8.716;2023-02-10T15:52:01;101086.97;;;6.18;44.91
25610;BME280;13479;49.044;8.716;2023-02-10T15:54:27;101091.50;;;6.15;44.96
25610;BME280;13479;49.044;8.716;2023-02-10T15:56:55;101097.03;;;6.07;45.15
25610;BME280;13479;49.044;8.716;2023-02-10T15:59:21;101098.84;;;6.05;45.64
25610;BME280;13479;49.044;8.716;2023-02-10T16:01:49;101088.50;;;5.99;45.44
25610;BME280;13479;49.044;8.716;2023-02-10T16:06:50;101096.97;;;5.82;46.30
25610;BME280;13479;49.044;8.716;2023-02-10T16:09:15;101092.94;;;5.70;46.53
25610;BME280;13479;49.044;8.716;2023-02-10T16:11:40;101094.97;;;5.62;46.59
25610;BME280;13479;49.044;8.716;2023-02-10T16:14:06;101091.81;;;5.50;46.73
25610;BME280;13479;49.044;8.716;2023-02-10T16:16:31;101087.22;;;5.29;46.86
25610;BME280;13479;49.044;8.716;2023-02-10T16:18:57;101083.25;;;5.15;47.34
25610;BME280;13479;49.044;8.716;2023-02-10T16:21:23;101080.13;;;5.02;47.71
25610;BME280;13479;49.044;8.716;2023-02-10T16:23:48;101075.16;;;4.91;47.70
25610;BME280;13479;49.044;8.716;2023-02-10T16:26:22;101073.84;;;4.78;48.22
25610;BME280;13479;49.044;8.716;2023-02-10T16:28:48;101078.28;;;4.76;48.36
25610;BME280;13479;49.044;8.716;2023-02-10T16:31:14;101073.16;;;4.70;48.51
25610;BME280;13479;49.044;8.716;2023-02-10T16:33:40;101076.19;;;4.56;48.27
25610;BME280;13479;49.044;8.716;2023-02-10T16:36:10;101061.63;;;4.44;49.19
25610;BME280;13479;49.044;8.716;2023-02-10T16:38:35;101075.84;;;4.37;48.76
25610;BME280;13479;49.044;8.716;2023-02-10T16:41:00;101072.50;;;4.31;49.37
25610;BME280;13479;49.044;8.716;2023-02-10T16:43:26;101081.53;;;4.21;49.49
25610;BME280;13479;49.044;8.716;2023-02-10T16:45:51;101070.31;;;4.14;50.04
25610;BME280;13479;49.044;8.716;2023-02-10T16:48:17;101066.09;;;4.09;50.39
25610;BME280;13479;49.044;8.716;2023-02-10T16:50:43;101074.94;;;4.05;50.61
25610;BME280;13479;49.044;8.716;2023-02-10T16:53:10;101074.13;;;4.02;50.88
25610;BME280;13479;49.044;8.716;2023-02-10T16:55:37;101069.75;;;4.01;50.73
25610;BME280;13479;49.044;8.716;2023-02-10T16:58:03;101078.78;;;3.91;50.77
25610;BME280;13479;49.044;8.716;2023-02-10T17:00:29;101075.44;;;3.86;51.07
25610;BME280;13479;49.044;8.716;2023-02-10T17:02:55;101075.50;;;3.83;50.91
25610;BME280;13479;49.044;8.716;2023-02-10T17:05:20;101076.22;;;3.90;51.42
25610;BME280;13479;49.044;8.716;2023-02-10T17:07:46;101078.53;;;4.00;51.15
25610;BME280;13479;49.044;8.716;2023-02-10T17:10:19;101070.47;;;4.08;51.41
25610;BME280;13479;49.044;8.716;2023-02-10T17:12:44;101076.41;;;4.15;50.81
25610;BME280;13479;49.044;8.716;2023-02-10T17:15:10;101081.09;;;4.05;51.16
25610;BME280;13479;49.044;8.716;2023-02-10T17:17:35;101078.16;;;4.16;51.30
25610;BME280;13479;49.044;8.716;2023-02-10T17:20:02;101082.16;;;3.96;51.12
25610;BME280;13479;49.044;8.716;2023-02-10T17:22:27;101084.50;;;3.73;52.35
25610;BME280;13479;49.044;8.716;2023-02-10T17:24:52;101084.88;;;3.57;52.54
25610;BME280;13479;49.044;8.716;2023-02-10T17:27:18;101082.59;;;3.43;52.50
25610;BME280;13479;49.044;8.716;2023-02-10T17:29:43;101089.53;;;3.82;52.08
25610;BME280;13479;49.044;8.716;2023-02-10T17:32:08;101091.47;;;3.37;52.38
25610;BME280;13479;49.044;8.716;2023-02-10T17:34:33;101078.88;;;3.13;52.82
25610;BME280;13479;49.044;8.716;2023-02-10T17:37:04;101079.25;;;2.97;53.43
25610;BME280;13479;49.044;8.716;2023-02-10T17:39:31;101084.00;;;2.78;53.54
25610;BME280;13479;49.044;8.716;2023-02-10T17:42:04;101088.56;;;2.68;53.48
25610;BME280;13479;49.044;8.716;2023-02-10T17:44:30;101075.66;;;2.59;53.90
25610;BME280;13479;49.044;8.716;2023-02-10T17:46:56;101083.50;;;2.59;54.19
25610;BME280;13479;49.044;8.716;2023-02-10T17:49:27;101085.28;;;2.57;54.16
25610;BME280;13479;49.044;8.716;2023-02-10T17:51:53;101089.88;;;2.45;53.91
25610;BME280;13479;49.044;8.716;2023-02-10T17:54:18;101093.72;;;2.29;54.06
25610;BME280;13479;49.044;8.716;2023-02-10T17:56:45;101087.63;;;2.27;54.77
25610;BME280;13479;49.044;8.716;2023-02-10T17:59:11;101091.31;;;2.16;54.79
25610;BME280;13479;49.044;8.716;2023-02-10T18:01:37;101086.25;;;2.07;55.49
25610;BME280;13479;49.044;8.716;2023-02-10T18:04:02;101086.25;;;2.07;55.78
25610;BME280;13479;49.044;8.716;2023-02-10T18:06:28;101089.91;;;1.95;56.30
25610;BME280;13479;49.044;8.716;2023-02-10T18:08:55;101085.69;;;1.88;56.59
25610;BME280;13479;49.044;8.716;2023-02-10T18:11:21;101091.16;;;1.74;56.61
25610;BME280;13479;49.044;8.716;2023-02-10T18:13:46;101096.53;;;1.66;57.00
25610;BME280;13479;49.044;8.716;2023-02-10T18:16:13;101092.13;;;1.67;57.31
25610;BME280;13479;49.044;8.716;2023-02-10T18:18:40;101081.63;;;1.70;58.13
25610;BME280;13479;49.044;8.716;2023-02-10T18:21:06;101088.56;;;1.73;58.27
25610;BME280;13479;49.044;8.716;2023-02-10T18:23:32;101090.47;;;1.63;58.32
25610;BME280;13479;49.044;8.716;2023-02-10T18:25:57;101091.44;;;1.56;58.52
25610;BME280;13479;49.044;8.716;2023-02-10T18:28:22;101091.53;;;1.48;58.83
25610;BME280;13479;49.044;8.716;2023-02-10T18:30:48;101097.66;;;1.47;59.28
25610;BME280;13479;49.044;8.716;2023-02-10T18:33:14;101096.78;;;1.49;59.42
25610;BME280;13479;49.044;8.716;2023-02-10T18:35:40;101106.22;;;1.60;59.45
25610;BME280;13479;49.044;8.716;2023-02-10T18:38:07;101100.09;;;1.59;59.98
25610;BME280;13479;49.044;8.716;2023-02-10T18:40:38;101094.91;;;1.58;59.93
25610;BME280;13479;49.044;8.716;2023-02-10T18:43:04;101096.63;;;1.59;60.17
25610;BME280;13479;49.044;8.716;2023-02-10T18:45:29;101100.34;;;1.44;60.35
25610;BME280;13479;49.044;8.716;2023-02-10T18:47:55;101096.00;;;1.43;60.75
25610;BME280;13479;49.044;8.716;2023-02-10T18:50:20;101094.16;;;1.49;60.78
25610;BME280;13479;49.044;8.716;2023-02-10T18:52:46;101097.81;;;1.39;61.04
25610;BME280;13479;49.044;8.716;2023-02-10T18:55:11;101095.16;;;1.41;61.25
25610;BME280;13479;49.044;8.716;2023-02-10T18:57:37;101095.19;;;1.39;61.14
25610;BME280;13479;49.044;8.716;2023-02-10T19:00:04;101087.22;;;1.45;61.30
25610;BME280;13479;49.044;8.716;2023-02-10T19:02:30;101086.38;;;1.43;61.35
25610;BME280;13479;49.044;8.716;2023-02-10T19:04:55;101081.22;;;1.38;61.72
25610;BME280;13479;49.044;8.716;2023-02-10T19:07:21;101082.03;;;1.42;61.99
25610;BME280;13479;49.044;8.716;2023-02-10T19:09:46;101080.38;;;1.38;62.00
25610;BME280;13479;49.044;8.716;2023-02-10T19:12:11;101086.84;;;1.12;62.07
25610;BME280;13479;49.044;8.716;2023-02-10T19:14:36;101087.13;;;0.90;62.74
25610;BME280;13479;49.044;8.716;2023-02-10T19:17:02;101079.38;;;0.84;63.21
25610;BME280;13479;49.044;8.716;2023-02-10T19:19:27;101080.25;;;0.82;63.67
25610;BME280;13479;49.044;8.716;2023-02-10T19:21:52;101076.78;;;0.80;63.89
25610;BME280;13479;49.044;8.716;2023-02-10T19:24:19;101075.16;;;0.72;64.19
25610;BME280;13479;49.044;8.716;2023-02-10T19:26:45;101071.63;;;0.75;64.42